createdAt,value
2023-05-22T00:01:58.595Z,2.95
2023-05-22T00:04:30.174Z,3.22
2023-05-22T00:06:57.236Z,3.05
2023-05-22T00:09:29.420Z,2.80
2023-05-22T00:11:56.187Z,1.92
2023-05-22T00:14:22.952Z,2.45
2023-05-22T00:16:50.419Z,4.70
2023-05-22T00:19:23.363Z,4.53
2023-05-22T00:21:51.502Z,4.13
2023-05-22T00:24:18.331Z,3.20
2023-05-22T00:26:45.007Z,4.68
2023-05-22T00:29:11.904Z,3.60
2023-05-22T00:31:38.619Z,3.50
2023-05-22T00:34:05.456Z,3.13
2023-05-22T00:36:32.190Z,2.03
2023-05-22T00:38:59.075Z,3.13
2023-05-22T00:41:28.081Z,3.78
2023-05-22T00:43:54.864Z,2.97
2023-05-22T00:46:24.613Z,4.85
2023-05-22T00:48:54.118Z,2.83
2023-05-22T00:51:24.253Z,3.72
2023-05-22T00:53:51.309Z,4.47
2023-05-22T00:56:21.911Z,2.40
2023-05-22T00:58:53.324Z,2.17
2023-05-22T01:01:20.561Z,2.75
2023-05-22T01:03:47.923Z,2.13
2023-05-22T01:06:18.495Z,3.40
2023-05-22T01:08:45.517Z,4.05
2023-05-22T01:11:24.847Z,2.78
2023-05-22T01:14:14.208Z,4.22
2023-05-22T01:17:23.632Z,3.85
2023-05-22T01:20:01.533Z,3.85
2023-05-22T01:23:00.328Z,4.93
2023-05-22T01:26:03.734Z,5.15
2023-05-22T01:31:21.700Z,4.43
2023-05-22T01:34:01.199Z,3.92
2023-05-22T01:36:31.470Z,5.32
2023-05-22T01:39:01.735Z,3.35
2023-05-22T01:41:29.862Z,4.90
2023-05-22T01:43:56.677Z,4.43
2023-05-22T01:46:27.117Z,5.75
2023-05-22T01:48:53.871Z,5.05
2023-05-22T01:51:29.604Z,4.00
2023-05-22T01:54:31.730Z,3.38
2023-05-22T01:57:11.505Z,6.13
2023-05-22T01:59:49.713Z,3.65
2023-05-22T02:02:20.168Z,4.30
2023-05-22T02:04:55.931Z,3.50
2023-05-22T02:07:25.155Z,6.25
2023-05-22T02:09:54.090Z,6.35
2023-05-22T02:12:24.035Z,6.13
2023-05-22T02:14:51.384Z,6.65
2023-05-22T02:17:18.305Z,6.82
2023-05-22T02:19:45.376Z,3.10
2023-05-22T02:22:15.293Z,6.25
2023-05-22T02:24:44.336Z,4.50
2023-05-22T02:27:13.716Z,7.15
2023-05-22T02:29:40.501Z,4.47
2023-05-22T02:32:09.912Z,3.72
2023-05-22T02:34:38.089Z,4.97
2023-05-22T02:37:05.448Z,3.53
2023-05-22T02:39:32.147Z,4.43
2023-05-22T02:41:59.079Z,6.28
2023-05-22T02:44:25.732Z,5.22
2023-05-22T02:46:54.878Z,5.38
2023-05-22T02:49:21.649Z,4.45
2023-05-22T02:51:50.622Z,7.00
2023-05-22T02:54:17.754Z,5.32
2023-05-22T02:56:46.940Z,6.90
2023-05-22T02:59:13.701Z,5.30
2023-05-22T03:01:40.461Z,5.85
2023-05-22T03:04:07.279Z,7.47
2023-05-22T03:06:37.329Z,5.53
2023-05-22T03:09:04.482Z,5.13
2023-05-22T03:11:31.983Z,3.72
2023-05-22T03:14:01.082Z,5.55
2023-05-22T03:16:28.175Z,5.03
2023-05-22T03:19:14.035Z,6.68
2023-05-22T03:21:41.272Z,4.72
2023-05-22T03:24:08.249Z,5.70
2023-05-22T03:26:35.023Z,4.32
2023-05-22T03:29:01.905Z,4.80
2023-05-22T03:31:31.523Z,5.82
2023-05-22T03:33:58.741Z,7.13
2023-05-22T03:36:25.788Z,4.53
2023-05-22T03:38:53.178Z,5.43
2023-05-22T03:41:19.906Z,4.15
2023-05-22T03:43:46.718Z,5.78
2023-05-22T03:46:13.566Z,6.53
2023-05-22T03:48:40.361Z,4.88
2023-05-22T03:51:09.305Z,6.20
2023-05-22T03:53:38.470Z,5.75
2023-05-22T03:56:07.949Z,7.22
2023-05-22T03:58:36.895Z,6.45
2023-05-22T04:01:13.206Z,6.43
2023-05-22T04:03:40.084Z,4.38
2023-05-22T04:06:07.826Z,7.03
2023-05-22T04:08:34.899Z,4.47
2023-05-22T04:11:05.523Z,6.32
2023-05-22T04:13:33.230Z,7.45
2023-05-22T04:18:31.021Z,5.63
2023-05-22T04:21:00.332Z,4.35
2023-05-22T04:23:27.077Z,7.93
2023-05-22T04:25:53.921Z,7.28
2023-05-22T04:28:23.800Z,6.05
2023-05-22T04:30:54.617Z,7.50
2023-05-22T04:33:21.709Z,5.65
2023-05-22T04:35:48.440Z,6.40
2023-05-22T04:38:16.227Z,8.02
2023-05-22T04:40:43.665Z,7.35
2023-05-22T04:43:13.794Z,6.75
2023-05-22T04:45:42.370Z,5.03
2023-05-22T04:48:13.764Z,5.72
2023-05-22T04:50:49.559Z,6.45
2023-05-22T04:53:16.303Z,8.43
2023-05-22T04:55:46.206Z,5.78
2023-05-22T04:58:15.557Z,7.18
2023-05-22T05:00:42.675Z,6.30
2023-05-22T05:03:12.018Z,7.90
2023-05-22T05:05:41.103Z,5.20
2023-05-22T05:08:10.080Z,5.88
2023-05-22T05:10:39.340Z,7.82
2023-05-22T05:13:06.312Z,6.88
2023-05-22T05:15:35.206Z,6.63
2023-05-22T05:18:02.011Z,6.55
2023-05-22T05:20:30.963Z,8.13
2023-05-22T05:22:57.714Z,9.07
2023-05-22T05:25:27.049Z,6.60
2023-05-22T05:27:53.754Z,7.38
2023-05-22T05:30:20.875Z,6.82
2023-05-22T05:32:47.731Z,7.20
2023-05-22T05:35:14.686Z,4.68
2023-05-22T05:37:41.776Z,7.03
2023-05-22T05:40:13.960Z,6.03
2023-05-22T05:42:40.675Z,5.07
2023-05-22T05:45:07.841Z,4.82
2023-05-22T05:50:01.728Z,6.07
2023-05-22T05:52:32.755Z,7.00
2023-05-22T05:55:01.167Z,5.43
2023-05-22T05:57:28.862Z,5.13
2023-05-22T05:59:55.549Z,4.82
2023-05-22T06:02:22.384Z,4.57
2023-05-22T06:04:53.995Z,5.25
2023-05-22T06:07:21.026Z,4.75
2023-05-22T06:09:47.780Z,4.68
2023-05-22T06:12:14.530Z,5.07
2023-05-22T06:14:41.417Z,5.00
2023-05-22T06:17:11.293Z,4.22
2023-05-22T06:19:38.230Z,4.80
2023-05-22T06:22:05.398Z,5.88
2023-05-22T06:24:32.705Z,4.75
2023-05-22T06:27:00.169Z,4.97
2023-05-22T06:29:26.921Z,4.38
2023-05-22T06:31:56.487Z,4.25
2023-05-22T06:34:23.366Z,4.03
2023-05-22T06:36:52.343Z,3.88
2023-05-22T06:39:19.303Z,3.88
2023-05-22T06:41:46.262Z,5.43
2023-05-22T06:44:13.090Z,4.40
2023-05-22T06:46:39.947Z,4.68
2023-05-22T06:49:06.797Z,4.93
2023-05-22T06:51:34.309Z,3.80
2023-05-22T06:54:01.814Z,4.13
2023-05-22T06:56:28.562Z,3.25
2023-05-22T06:58:55.710Z,4.43
2023-05-22T07:01:23.297Z,4.15
2023-05-22T07:03:50.269Z,4.50
2023-05-22T07:06:18.262Z,5.35
2023-05-22T07:08:45.245Z,3.88
2023-05-22T07:11:14.323Z,4.35
2023-05-22T07:13:41.022Z,4.57
2023-05-22T07:16:10.526Z,4.82
2023-05-22T07:18:37.354Z,5.13
2023-05-22T07:21:04.194Z,4.60
2023-05-22T07:23:30.881Z,3.60
2023-05-22T07:25:57.681Z,4.10
2023-05-22T07:28:26.807Z,4.13
2023-05-22T07:30:56.455Z,3.50
2023-05-22T07:33:23.140Z,5.30
2023-05-22T07:35:49.986Z,5.13
2023-05-22T07:38:19.273Z,3.58
2023-05-22T07:40:48.481Z,5.18
2023-05-22T07:43:15.704Z,5.60
2023-05-22T07:45:45.181Z,3.88
2023-05-22T07:48:11.978Z,2.83
2023-05-22T07:50:38.977Z,4.30
2023-05-22T07:53:06.609Z,3.55
2023-05-22T07:55:33.433Z,4.85
2023-05-22T07:58:04.277Z,5.40
2023-05-22T08:00:31.359Z,4.45
2023-05-22T08:02:58.418Z,5.18
2023-05-22T08:05:27.517Z,4.63
2023-05-22T08:07:54.349Z,5.38
2023-05-22T08:10:23.478Z,5.10
2023-05-22T08:12:54.987Z,4.50
2023-05-22T08:15:21.672Z,3.38
2023-05-22T08:17:48.510Z,5.00
2023-05-22T08:20:15.450Z,4.88
2023-05-22T08:22:42.308Z,4.53
2023-05-22T08:25:09.558Z,4.22
2023-05-22T08:27:36.421Z,4.57
2023-05-22T08:30:04.648Z,5.28
2023-05-22T08:32:31.703Z,6.30
2023-05-22T08:35:03.354Z,5.03
2023-05-22T08:37:30.045Z,5.78
2023-05-22T08:39:59.342Z,4.85
2023-05-22T08:42:26.125Z,4.88
2023-05-22T08:44:55.533Z,4.00
2023-05-22T08:47:26.152Z,3.78
2023-05-22T08:49:58.094Z,5.75
2023-05-22T08:52:34.238Z,4.05
2023-05-22T08:55:05.175Z,4.63
2023-05-22T08:57:33.107Z,3.92
2023-05-22T09:00:00.172Z,4.57
2023-05-22T09:02:30.149Z,4.75
2023-05-22T09:05:02.149Z,3.70
2023-05-22T09:07:31.321Z,4.53
2023-05-22T09:10:05.274Z,4.45
2023-05-22T09:12:34.965Z,3.67
2023-05-22T09:15:11.635Z,4.45
2023-05-22T09:17:41.502Z,4.57
2023-05-22T09:20:10.465Z,4.18
2023-05-22T09:22:38.460Z,4.63
2023-05-22T09:25:07.130Z,4.00
2023-05-22T09:27:36.770Z,5.00
2023-05-22T09:30:03.838Z,4.30
2023-05-22T09:32:31.417Z,4.55
2023-05-22T09:35:05.138Z,3.70
2023-05-22T09:37:36.816Z,5.03
2023-05-22T09:40:15.153Z,4.70
2023-05-22T09:45:14.541Z,4.30
2023-05-22T09:47:43.553Z,4.70
2023-05-22T09:50:10.880Z,5.35
2023-05-22T09:52:38.218Z,5.00
2023-05-22T09:55:08.833Z,5.10
2023-05-22T09:57:48.426Z,5.28
2023-05-22T10:00:18.638Z,5.07
2023-05-22T10:02:47.421Z,4.70
2023-05-22T10:05:21.490Z,4.55
2023-05-22T10:07:56.206Z,4.55
2023-05-22T10:10:26.142Z,4.95
2023-05-22T10:13:06.917Z,5.30
2023-05-22T10:15:37.523Z,4.70
2023-05-22T10:18:05.293Z,5.13
2023-05-22T10:20:32.248Z,5.47
2023-05-22T10:22:59.739Z,6.57
2023-05-22T10:25:26.999Z,5.00
2023-05-22T10:27:55.012Z,5.50
2023-05-22T10:30:36.254Z,3.90
2023-05-22T10:33:15.102Z,3.92
2023-05-22T10:35:52.840Z,5.20
2023-05-22T10:39:00.131Z,5.38
2023-05-22T10:41:26.970Z,4.93
2023-05-22T10:43:57.064Z,5.55
2023-05-22T10:46:23.874Z,3.95
2023-05-22T10:48:55.611Z,5.43
2023-05-22T10:51:25.369Z,6.50
2023-05-22T10:53:53.742Z,4.53
2023-05-22T10:56:23.618Z,4.00
2023-05-22T10:59:02.893Z,4.28
2023-05-22T11:01:35.367Z,4.75
2023-05-22T11:04:05.382Z,5.28
2023-05-22T11:06:37.944Z,3.67
2023-05-22T11:09:18.991Z,5.07
2023-05-22T11:12:06.247Z,5.05
2023-05-22T11:14:33.108Z,5.22
2023-05-22T11:17:02.730Z,5.50
2023-05-22T11:19:31.869Z,4.90
2023-05-22T11:22:03.872Z,5.70
2023-05-22T11:27:12.652Z,4.78
2023-05-22T11:29:42.947Z,4.63
2023-05-22T11:32:20.208Z,5.45
2023-05-22T11:34:50.550Z,4.90
2023-05-22T11:37:23.010Z,4.63
2023-05-22T11:39:51.659Z,4.13
2023-05-22T11:42:19.822Z,5.57
2023-05-22T11:44:46.563Z,5.43
2023-05-22T11:47:13.556Z,4.40
2023-05-22T11:49:43.596Z,5.10
2023-05-22T11:52:11.175Z,6.03
2023-05-22T11:54:40.063Z,5.43
2023-05-22T11:57:08.553Z,4.65
2023-05-22T11:59:35.659Z,5.10
2023-05-22T12:02:04.658Z,4.75
2023-05-22T12:04:33.241Z,5.07
2023-05-22T12:07:00.288Z,5.07
2023-05-22T12:09:32.271Z,7.35
2023-05-22T12:14:31.146Z,5.32
2023-05-22T12:17:04.394Z,6.18
2023-05-22T12:19:33.690Z,5.20
2023-05-22T12:22:00.588Z,5.60
2023-05-22T12:24:37.981Z,5.90
2023-05-22T12:27:10.403Z,5.30
2023-05-22T12:29:38.837Z,5.88
2023-05-22T12:32:08.516Z,7.13
2023-05-22T12:34:36.633Z,6.07
2023-05-22T12:37:03.355Z,5.63
2023-05-22T12:39:30.659Z,5.60
2023-05-22T12:41:57.467Z,5.95
2023-05-22T12:44:26.520Z,6.65
2023-05-22T12:46:53.390Z,5.95
2023-05-22T12:49:20.163Z,5.32
2023-05-22T12:51:46.910Z,3.72
2023-05-22T12:54:16.192Z,5.50
2023-05-22T12:56:42.965Z,5.57
2023-05-22T12:59:09.734Z,7.20
2023-05-22T13:01:36.563Z,6.22
2023-05-22T13:04:05.853Z,7.70
2023-05-22T13:06:32.552Z,5.45
2023-05-22T13:09:02.107Z,6.93
2023-05-22T13:11:29.006Z,5.88
2023-05-22T13:13:55.900Z,4.13
2023-05-22T13:16:22.727Z,7.10
2023-05-22T13:18:49.498Z,5.85
2023-05-22T13:21:16.502Z,7.13
2023-05-22T13:23:43.243Z,6.55
2023-05-22T13:26:12.535Z,7.15
2023-05-22T13:28:39.348Z,5.35
2023-05-22T13:31:06.117Z,5.45
2023-05-22T13:33:32.954Z,6.38
2023-05-22T13:36:01.916Z,5.68
2023-05-22T13:38:28.767Z,6.72
2023-05-22T13:41:00.417Z,6.70
2023-05-22T13:43:27.219Z,8.65
2023-05-22T13:45:53.907Z,6.93
2023-05-22T13:48:20.604Z,8.05
2023-05-22T13:50:47.345Z,7.30
2023-05-22T13:53:14.082Z,7.57
2023-05-22T13:55:43.260Z,7.88
2023-05-22T13:58:10.019Z,7.13
2023-05-22T14:00:36.758Z,6.85
2023-05-22T14:03:03.630Z,9.15
2023-05-22T14:05:32.137Z,8.57
2023-05-22T14:08:01.123Z,7.97
2023-05-22T14:10:27.827Z,6.22
2023-05-22T14:12:55.030Z,8.18
2023-05-22T14:15:21.760Z,6.82
2023-05-22T14:17:48.646Z,8.05
2023-05-22T14:20:15.557Z,7.80
2023-05-22T14:22:55.983Z,6.63
2023-05-22T14:25:25.126Z,5.32
2023-05-22T14:27:54.439Z,7.07
2023-05-22T14:30:25.880Z,5.63
2023-05-22T14:32:52.731Z,7.18
2023-05-22T14:35:19.675Z,7.82
2023-05-22T14:37:46.364Z,6.53
2023-05-22T14:40:13.220Z,6.10
2023-05-22T14:42:39.910Z,6.70
2023-05-22T14:45:07.128Z,5.07
2023-05-22T14:47:33.795Z,6.95
2023-05-22T14:50:18.292Z,6.22
2023-05-22T14:52:47.024Z,7.07
2023-05-22T14:55:13.834Z,6.63
2023-05-22T14:57:42.806Z,7.78
2023-05-22T15:00:10.996Z,5.95
2023-05-22T15:02:42.222Z,4.90
2023-05-22T15:05:09.867Z,6.47
2023-05-22T15:07:43.761Z,6.40
2023-05-22T15:10:12.377Z,5.75
2023-05-22T15:12:39.163Z,5.20
2023-05-22T15:15:09.293Z,5.95
2023-05-22T15:17:40.783Z,6.00
2023-05-22T15:20:09.920Z,4.88
2023-05-22T15:22:36.699Z,6.22
2023-05-22T15:25:18.995Z,4.32
2023-05-22T15:27:46.457Z,5.03
2023-05-22T15:30:15.201Z,5.97
2023-05-22T15:32:41.943Z,4.78
2023-05-22T15:35:11.763Z,4.38
2023-05-22T15:37:41.174Z,6.88
2023-05-22T15:40:09.968Z,7.18
2023-05-22T15:42:36.888Z,5.75
2023-05-22T15:45:03.865Z,4.95
2023-05-22T15:47:30.807Z,4.88
2023-05-22T15:50:00.242Z,4.93
2023-05-22T15:52:27.111Z,5.40
2023-05-22T15:54:55.036Z,6.13
2023-05-22T15:57:23.734Z,5.43
2023-05-22T15:59:51.267Z,5.82
2023-05-22T16:02:18.908Z,5.47
2023-05-22T16:04:45.898Z,5.53
2023-05-22T16:07:18.969Z,5.60
2023-05-22T16:09:45.808Z,6.35
2023-05-22T16:12:14.712Z,5.32
2023-05-22T16:14:41.933Z,5.78
2023-05-22T16:17:08.767Z,5.80
2023-05-22T16:19:38.026Z,4.90
2023-05-22T16:22:05.027Z,4.95
2023-05-22T16:24:31.848Z,5.93
2023-05-22T16:27:02.101Z,4.80
2023-05-22T16:29:34.013Z,5.82
2023-05-22T16:34:27.824Z,5.03
2023-05-22T16:36:54.488Z,4.93
2023-05-22T16:39:23.489Z,4.85
2023-05-22T16:41:53.597Z,6.32
2023-05-22T16:44:22.032Z,6.03
2023-05-22T16:46:49.877Z,6.80
2023-05-22T16:49:16.565Z,6.95
2023-05-22T16:51:45.812Z,4.78
2023-05-22T16:54:12.511Z,5.13
2023-05-22T16:56:39.339Z,4.88
2023-05-22T16:59:06.184Z,4.60
2023-05-22T17:01:33.063Z,4.68
2023-05-22T17:03:59.784Z,6.15
2023-05-22T17:06:27.779Z,5.43
2023-05-22T17:08:54.448Z,6.28
2023-05-22T17:11:24.834Z,4.47
2023-05-22T17:13:52.167Z,6.57
2023-05-22T17:16:19.776Z,5.07
2023-05-22T17:18:46.665Z,5.47
2023-05-22T17:21:13.427Z,6.25
2023-05-22T17:23:42.391Z,4.78
2023-05-22T17:26:09.215Z,5.68
2023-05-22T17:28:36.008Z,5.70
2023-05-22T17:31:03.030Z,6.10
2023-05-22T17:33:29.692Z,5.47
2023-05-22T17:35:56.459Z,6.28
2023-05-22T17:38:25.647Z,6.18
2023-05-22T17:40:52.849Z,6.47
2023-05-22T17:43:20.053Z,6.20
2023-05-22T17:45:53.064Z,5.35
2023-05-22T17:48:23.853Z,5.90
2023-05-22T17:50:53.279Z,6.90
2023-05-22T17:53:21.054Z,7.80
2023-05-22T17:55:52.555Z,6.28
2023-05-22T17:58:20.645Z,6.53
2023-05-22T18:00:48.883Z,8.93
2023-05-22T18:03:20.156Z,6.97
2023-05-22T18:05:48.334Z,6.85
2023-05-22T18:08:15.631Z,6.20
2023-05-22T18:10:42.976Z,5.80
2023-05-22T18:13:12.350Z,5.68
2023-05-22T18:15:39.073Z,6.10
2023-05-22T18:18:08.160Z,6.00
2023-05-22T18:20:37.983Z,8.30
2023-05-22T18:23:04.768Z,7.40
2023-05-22T18:25:31.456Z,6.85
2023-05-22T18:27:58.459Z,7.50
2023-05-22T18:30:25.166Z,8.95
2023-05-22T18:32:52.267Z,6.70
2023-05-22T18:35:19.161Z,6.97
2023-05-22T18:37:46.182Z,7.93
2023-05-22T18:40:18.077Z,8.13
2023-05-22T18:45:14.387Z,7.45
2023-05-22T18:47:41.369Z,6.05
2023-05-22T18:50:08.790Z,6.57
2023-05-22T18:52:35.602Z,6.55
2023-05-22T18:55:02.254Z,6.45
2023-05-22T18:57:29.013Z,6.93
2023-05-22T18:59:57.930Z,6.05
2023-05-22T19:02:24.634Z,7.22
2023-05-22T19:04:51.734Z,6.60
2023-05-22T19:07:23.000Z,7.78
2023-05-22T19:09:49.856Z,5.70
2023-05-22T19:12:16.898Z,5.70
2023-05-22T19:14:43.740Z,5.53
2023-05-22T19:17:12.908Z,6.47
2023-05-22T19:19:39.749Z,8.30
2023-05-22T19:22:06.650Z,5.57
2023-05-22T19:24:36.505Z,5.90
2023-05-22T19:27:03.779Z,7.32
2023-05-22T19:29:33.035Z,7.47
2023-05-22T19:31:59.806Z,5.65
2023-05-22T19:34:26.508Z,5.53
2023-05-22T19:36:57.574Z,5.45
2023-05-22T19:39:24.951Z,6.80
2023-05-22T19:41:52.725Z,6.63
2023-05-22T19:44:21.626Z,7.05
2023-05-22T19:46:50.722Z,7.10
2023-05-22T19:49:17.427Z,5.22
2023-05-22T19:51:46.168Z,5.57
2023-05-22T19:54:15.735Z,6.80
2023-05-22T19:56:42.508Z,5.25
2023-05-22T19:59:11.764Z,6.70
2023-05-22T20:01:40.775Z,6.25
2023-05-22T20:04:07.943Z,5.50
2023-05-22T20:06:34.818Z,5.32
2023-05-22T20:09:05.921Z,6.22
2023-05-22T20:11:32.704Z,5.60
2023-05-22T20:13:59.388Z,4.90
2023-05-22T20:16:29.150Z,5.60
2023-05-22T20:18:56.471Z,6.38
2023-05-22T20:21:25.310Z,5.63
2023-05-22T20:23:52.970Z,5.97
2023-05-22T20:26:21.887Z,6.40
2023-05-22T20:28:50.952Z,7.15
2023-05-22T20:31:17.821Z,5.47
2023-05-22T20:33:46.842Z,6.90
2023-05-22T20:36:16.531Z,6.57
2023-05-22T20:38:43.900Z,4.97
2023-05-22T20:41:13.789Z,5.25
2023-05-22T20:43:43.407Z,6.85
2023-05-22T20:46:10.582Z,5.80
2023-05-22T20:48:38.004Z,6.05
2023-05-22T20:51:08.158Z,4.63
2023-05-22T20:53:34.924Z,5.18
2023-05-22T20:56:01.882Z,5.18
2023-05-22T20:58:31.178Z,5.43
2023-05-22T21:00:58.069Z,6.40
2023-05-22T21:03:26.000Z,5.13
2023-05-22T21:05:53.015Z,4.13
2023-05-22T21:08:20.970Z,5.57
2023-05-22T21:10:50.029Z,5.78
2023-05-22T21:13:19.530Z,5.25
2023-05-22T21:15:46.160Z,6.28
2023-05-22T21:18:15.169Z,4.93
2023-05-22T21:20:44.069Z,6.57
2023-05-22T21:23:11.410Z,6.13
2023-05-22T21:25:40.597Z,5.28
2023-05-22T21:28:07.929Z,6.18
2023-05-22T21:30:34.659Z,4.43
2023-05-22T21:33:03.875Z,5.80
2023-05-22T21:35:30.661Z,5.35
2023-05-22T21:37:59.660Z,5.03
2023-05-22T21:40:26.850Z,5.68
2023-05-22T21:42:58.962Z,5.15
2023-05-22T21:45:25.580Z,6.50
2023-05-22T21:47:52.402Z,5.80
2023-05-22T21:50:19.102Z,5.75
2023-05-22T21:52:45.863Z,6.35
2023-05-22T21:55:12.631Z,6.93
2023-05-22T21:57:41.843Z,6.45
2023-05-22T22:00:09.190Z,6.25
2023-05-22T22:02:36.013Z,6.03
2023-05-22T22:05:06.011Z,6.45
2023-05-22T22:07:35.087Z,5.43
2023-05-22T22:10:01.880Z,6.13
2023-05-22T22:12:28.569Z,7.93
2023-05-22T22:14:57.882Z,7.10
2023-05-22T22:17:24.699Z,7.40
2023-05-22T22:19:56.963Z,5.90
2023-05-22T22:22:26.689Z,7.03
2023-05-22T22:24:55.857Z,6.88
2023-05-22T22:27:24.764Z,7.93
2023-05-22T22:29:51.521Z,6.00
2023-05-22T22:32:18.488Z,7.22
2023-05-22T22:34:48.747Z,6.00
2023-05-22T22:37:15.535Z,8.02
2023-05-22T22:39:42.238Z,8.02
2023-05-22T22:42:13.417Z,7.65
2023-05-22T22:44:45.013Z,6.75
2023-05-22T22:47:14.334Z,7.75
2023-05-22T22:49:41.040Z,7.38
2023-05-22T22:52:09.984Z,7.78
2023-05-22T22:54:38.849Z,8.57
2023-05-22T22:57:05.923Z,5.75
2023-05-22T22:59:33.779Z,6.85
2023-05-22T23:02:00.767Z,8.85
2023-05-22T23:04:28.309Z,9.98
2023-05-22T23:06:58.764Z,7.35
2023-05-22T23:09:25.597Z,7.15
2023-05-22T23:11:52.283Z,7.53
2023-05-22T23:14:20.455Z,7.20
2023-05-22T23:16:47.300Z,5.95
2023-05-22T23:19:14.204Z,6.20
2023-05-22T23:21:41.525Z,5.43
2023-05-22T23:24:08.254Z,8.50
2023-05-22T23:26:35.259Z,6.75
2023-05-22T23:29:02.370Z,6.30
2023-05-22T23:31:30.863Z,5.70
2023-05-22T23:33:58.306Z,8.35
2023-05-22T23:36:25.971Z,6.00
2023-05-22T23:38:52.710Z,7.90
2023-05-22T23:41:21.783Z,7.03
2023-05-22T23:43:48.424Z,6.15
2023-05-22T23:46:18.108Z,7.65
2023-05-22T23:48:44.975Z,9.20
2023-05-22T23:51:14.644Z,5.80
2023-05-22T23:53:42.068Z,6.90
2023-05-22T23:56:09.853Z,7.78
2023-05-22T23:58:39.783Z,6.95
